sensor_id;sensor_type;location;lat;lon;timestamp;P1;durP1;ratioP1;P2;durP2;ratioP2
35646;SDS011;28680;45.642;13.756;2023-01-13T00:01:20;8.10;;;3.58;;
35646;SDS011;28680;45.642;13.756;2023-01-13T00:03:48;7.38;;;3.70;;
35646;SDS011;28680;45.642;13.756;2023-01-13T00:06:15;6.80;;;3.83;;
35646;SDS011;28680;45.642;13.756;2023-01-13T00:08:48;8.82;;;3.80;;
35646;SDS011;28680;45.642;13.756;2023-01-13T00:11:16;8.40;;;3.90;;
35646;SDS011;28680;45.642;13.756;2023-01-13T00:13:43;9.00;;;3.72;;
35646;SDS011;28680;45.642;13.756;2023-01-13T00:16:11;6.53;;;3.30;;
35646;SDS011;28680;45.642;13.756;2023-01-13T00:18:39;6.75;;;3.70;;
35646;SDS011;28680;45.642;13.756;2023-01-13T00:23:37;5.47;;;3.17;;
35646;SDS011;28680;45.642;13.756;2023-01-13T00:26:05;6.35;;;3.38;;
35646;SDS011;28680;45.642;13.756;2023-01-13T00:28:34;7.05;;;3.33;;
35646;SDS011;28680;45.642;13.756;2023-01-13T00:33:38;7.22;;;3.70;;
35646;SDS011;28680;45.642;13.756;2023-01-13T00:36:05;8.20;;;3.92;;
35646;SDS011;28680;45.642;13.756;2023-01-13T00:38:33;6.80;;;3.65;;
35646;SDS011;28680;45.642;13.756;2023-01-13T00:43:32;8.10;;;3.70;;
35646;SDS011;28680;45.642;13.756;2023-01-13T00:46:00;5.28;;;3.30;;
35646;SDS011;28680;45.642;13.756;2023-01-13T00:48:27;7.05;;;3.47;;
35646;SDS011;28680;45.642;13.756;2023-01-13T00:50:59;7.70;;;3.50;;
35646;SDS011;28680;45.642;13.756;2023-01-13T00:53:28;7.60;;;4.30;;
35646;SDS011;28680;45.642;13.756;2023-01-13T00:55:58;5.30;;;3.75;;
35646;SDS011;28680;45.642;13.756;2023-01-13T00:58:31;8.10;;;3.88;;
35646;SDS011;28680;45.642;13.756;2023-01-13T01:01:01;10.00;;;3.85;;
35646;SDS011;28680;45.642;13.756;2023-01-13T01:03:30;6.25;;;3.70;;
35646;SDS011;28680;45.642;13.756;2023-01-13T01:06:02;5.82;;;3.60;;
35646;SDS011;28680;45.642;13.756;2023-01-13T01:08:31;5.70;;;3.80;;
35646;SDS011;28680;45.642;13.756;2023-01-13T01:11:02;5.63;;;3.50;;
35646;SDS011;28680;45.642;13.756;2023-01-13T01:13:30;7.75;;;3.55;;
35646;SDS011;28680;45.642;13.756;2023-01-13T01:15:56;8.70;;;4.00;;
35646;SDS011;28680;45.642;13.756;2023-01-13T01:18:22;6.05;;;3.75;;
35646;SDS011;28680;45.642;13.756;2023-01-13T01:20:48;5.28;;;3.13;;
35646;SDS011;28680;45.642;13.756;2023-01-13T01:23:14;7.05;;;3.28;;
35646;SDS011;28680;45.642;13.756;2023-01-13T01:25:40;5.90;;;2.85;;
35646;SDS011;28680;45.642;13.756;2023-01-13T01:28:06;5.95;;;3.03;;
35646;SDS011;28680;45.642;13.756;2023-01-13T01:30:32;5.10;;;2.78;;
35646;SDS011;28680;45.642;13.756;2023-01-13T01:32:58;5.97;;;2.78;;
35646;SDS011;28680;45.642;13.756;2023-01-13T01:35:23;3.92;;;2.50;;
35646;SDS011;28680;45.642;13.756;2023-01-13T01:37:49;5.03;;;2.92;;
35646;SDS011;28680;45.642;13.756;2023-01-13T01:40:15;5.95;;;3.10;;
35646;SDS011;28680;45.642;13.756;2023-01-13T01:42:41;7.10;;;3.20;;
35646;SDS011;28680;45.642;13.756;2023-01-13T01:45:26;5.38;;;3.08;;
35646;SDS011;28680;45.642;13.756;2023-01-13T01:47:56;6.85;;;3.33;;
35646;SDS011;28680;45.642;13.756;2023-01-13T01:50:27;6.07;;;3.00;;
35646;SDS011;28680;45.642;13.756;2023-01-13T01:53:01;5.72;;;3.13;;
35646;SDS011;28680;45.642;13.756;2023-01-13T01:55:38;5.72;;;2.95;;
35646;SDS011;28680;45.642;13.756;2023-01-13T02:00:47;5.50;;;3.03;;
35646;SDS011;28680;45.642;13.756;2023-01-13T02:03:13;5.53;;;2.85;;
35646;SDS011;28680;45.642;13.756;2023-01-13T02:05:41;6.88;;;2.92;;
35646;SDS011;28680;45.642;13.756;2023-01-13T02:08:07;6.63;;;3.22;;
35646;SDS011;28680;45.642;13.756;2023-01-13T02:10:35;5.93;;;3.15;;
35646;SDS011;28680;45.642;13.756;2023-01-13T02:13:04;6.28;;;3.30;;
35646;SDS011;28680;45.642;13.756;2023-01-13T02:18:39;5.28;;;3.05;;
35646;SDS011;28680;45.642;13.756;2023-01-13T02:33:30;4.53;;;2.67;;
35646;SDS011;28680;45.642;13.756;2023-01-13T02:39:24;4.60;;;2.08;;
35646;SDS011;28680;45.642;13.756;2023-01-13T02:42:09;5.18;;;2.47;;
35646;SDS011;28680;45.642;13.756;2023-01-13T02:45:02;5.10;;;2.72;;
35646;SDS011;28680;45.642;13.756;2023-01-13T02:47:38;3.63;;;2.45;;
35646;SDS011;28680;45.642;13.756;2023-01-13T02:50:14;6.03;;;3.03;;
35646;SDS011;28680;45.642;13.756;2023-01-13T02:52:44;6.60;;;2.17;;
35646;SDS011;28680;45.642;13.756;2023-01-13T02:55:25;7.68;;;2.90;;
35646;SDS011;28680;45.642;13.756;2023-01-13T02:58:02;3.78;;;2.28;;
35646;SDS011;28680;45.642;13.756;2023-01-13T03:00:31;5.30;;;2.28;;
35646;SDS011;28680;45.642;13.756;2023-01-13T03:02:59;4.22;;;2.47;;
35646;SDS011;28680;45.642;13.756;2023-01-13T03:05:25;3.33;;;2.20;;
35646;SDS011;28680;45.642;13.756;2023-01-13T03:11:10;4.63;;;2.00;;
35646;SDS011;28680;45.642;13.756;2023-01-13T03:19:43;2.97;;;1.90;;
35646;SDS011;28680;45.642;13.756;2023-01-13T03:27:57;6.25;;;1.92;;
35646;SDS011;28680;45.642;13.756;2023-01-13T03:30:37;3.33;;;1.85;;
35646;SDS011;28680;45.642;13.756;2023-01-13T03:36:29;6.05;;;1.95;;
35646;SDS011;28680;45.642;13.756;2023-01-13T03:39:08;3.53;;;1.83;;
35646;SDS011;28680;45.642;13.756;2023-01-13T03:41:43;3.15;;;1.95;;
35646;SDS011;28680;45.642;13.756;2023-01-13T03:44:34;5.15;;;3.30;;
35646;SDS011;28680;45.642;13.756;2023-01-13T03:52:31;3.38;;;1.70;;
35646;SDS011;28680;45.642;13.756;2023-01-13T03:55:09;4.20;;;1.70;;
35646;SDS011;28680;45.642;13.756;2023-01-13T03:57:52;4.00;;;1.80;;
35646;SDS011;28680;45.642;13.756;2023-01-13T04:00:31;2.90;;;1.60;;
35646;SDS011;28680;45.642;13.756;2023-01-13T04:03:06;3.05;;;1.67;;
35646;SDS011;28680;45.642;13.756;2023-01-13T04:05:38;2.80;;;1.52;;
35646;SDS011;28680;45.642;13.756;2023-01-13T04:11:04;2.33;;;1.67;;
35646;SDS011;28680;45.642;13.756;2023-01-13T04:13:50;3.25;;;1.85;;
35646;SDS011;28680;45.642;13.756;2023-01-13T04:16:18;3.05;;;1.58;;
35646;SDS011;28680;45.642;13.756;2023-01-13T04:18:43;2.67;;;1.75;;
35646;SDS011;28680;45.642;13.756;2023-01-13T04:21:09;2.60;;;1.60;;
35646;SDS011;28680;45.642;13.756;2023-01-13T04:23:35;3.70;;;2.05;;
35646;SDS011;28680;45.642;13.756;2023-01-13T04:26:01;3.15;;;1.52;;
35646;SDS011;28680;45.642;13.756;2023-01-13T04:28:27;2.78;;;1.63;;
35646;SDS011;28680;45.642;13.756;2023-01-13T04:30:53;5.35;;;1.83;;
35646;SDS011;28680;45.642;13.756;2023-01-13T04:33:19;3.72;;;1.95;;
35646;SDS011;28680;45.642;13.756;2023-01-13T04:35:45;3.47;;;1.70;;
35646;SDS011;28680;45.642;13.756;2023-01-13T04:38:13;2.75;;;1.80;;
35646;SDS011;28680;45.642;13.756;2023-01-13T04:40:45;2.92;;;1.60;;
35646;SDS011;28680;45.642;13.756;2023-01-13T04:43:11;2.42;;;1.67;;
35646;SDS011;28680;45.642;13.756;2023-01-13T04:45:39;3.10;;;1.75;;
35646;SDS011;28680;45.642;13.756;2023-01-13T04:48:06;5.32;;;2.17;;
35646;SDS011;28680;45.642;13.756;2023-01-13T04:50:32;3.35;;;1.60;;
35646;SDS011;28680;45.642;13.756;2023-01-13T04:52:58;3.00;;;1.83;;
35646;SDS011;28680;45.642;13.756;2023-01-13T04:55:25;4.18;;;2.10;;
35646;SDS011;28680;45.642;13.756;2023-01-13T04:57:52;2.03;;;1.38;;
35646;SDS011;28680;45.642;13.756;2023-01-13T05:00:19;2.88;;;1.50;;
35646;SDS011;28680;45.642;13.756;2023-01-13T05:02:50;1.80;;;1.40;;
35646;SDS011;28680;45.642;13.756;2023-01-13T05:05:16;2.17;;;1.23;;
35646;SDS011;28680;45.642;13.756;2023-01-13T05:07:42;2.58;;;1.48;;
35646;SDS011;28680;45.642;13.756;2023-01-13T05:10:08;4.38;;;1.50;;
35646;SDS011;28680;45.642;13.756;2023-01-13T05:12:35;3.17;;;1.35;;
35646;SDS011;28680;45.642;13.756;2023-01-13T05:15:19;2.67;;;1.40;;
35646;SDS011;28680;45.642;13.756;2023-01-13T05:18:04;2.50;;;1.60;;
35646;SDS011;28680;45.642;13.756;2023-01-13T05:20:30;2.78;;;1.38;;
35646;SDS011;28680;45.642;13.756;2023-01-13T05:22:56;2.55;;;1.40;;
35646;SDS011;28680;45.642;13.756;2023-01-13T05:25:40;5.03;;;1.95;;
35646;SDS011;28680;45.642;13.756;2023-01-13T05:28:11;3.45;;;1.70;;
35646;SDS011;28680;45.642;13.756;2023-01-13T05:30:37;3.15;;;1.55;;
35646;SDS011;28680;45.642;13.756;2023-01-13T05:33:10;3.83;;;1.65;;
35646;SDS011;28680;45.642;13.756;2023-01-13T05:35:42;3.13;;;1.63;;
35646;SDS011;28680;45.642;13.756;2023-01-13T05:38:10;3.28;;;2.00;;
35646;SDS011;28680;45.642;13.756;2023-01-13T05:40:37;1.65;;;1.17;;
35646;SDS011;28680;45.642;13.756;2023-01-13T05:43:23;4.38;;;1.25;;
35646;SDS011;28680;45.642;13.756;2023-01-13T05:45:50;2.45;;;1.23;;
35646;SDS011;28680;45.642;13.756;2023-01-13T05:48:37;3.42;;;1.60;;
35646;SDS011;28680;45.642;13.756;2023-01-13T05:51:07;2.95;;;1.67;;
35646;SDS011;28680;45.642;13.756;2023-01-13T05:53:35;3.53;;;1.40;;
35646;SDS011;28680;45.642;13.756;2023-01-13T05:56:05;3.30;;;1.50;;
35646;SDS011;28680;45.642;13.756;2023-01-13T05:58:32;1.98;;;1.48;;
35646;SDS011;28680;45.642;13.756;2023-01-13T06:00:59;3.92;;;1.33;;
35646;SDS011;28680;45.642;13.756;2023-01-13T06:03:29;5.57;;;1.67;;
35646;SDS011;28680;45.642;13.756;2023-01-13T06:05:55;5.07;;;1.38;;
35646;SDS011;28680;45.642;13.756;2023-01-13T06:08:26;5.03;;;1.40;;
35646;SDS011;28680;45.642;13.756;2023-01-13T06:10:52;8.43;;;1.95;;
35646;SDS011;28680;45.642;13.756;2023-01-13T06:13:18;6.50;;;1.95;;
35646;SDS011;28680;45.642;13.756;2023-01-13T06:15:44;5.40;;;1.95;;
35646;SDS011;28680;45.642;13.756;2023-01-13T06:18:09;4.40;;;1.80;;
35646;SDS011;28680;45.642;13.756;2023-01-13T06:20:35;3.58;;;1.70;;
35646;SDS011;28680;45.642;13.756;2023-01-13T06:23:02;2.97;;;1.77;;
35646;SDS011;28680;45.642;13.756;2023-01-13T06:28:25;6.50;;;1.88;;
35646;SDS011;28680;45.642;13.756;2023-01-13T06:30:53;4.07;;;1.80;;
35646;SDS011;28680;45.642;13.756;2023-01-13T06:33:25;3.72;;;1.63;;
35646;SDS011;28680;45.642;13.756;2023-01-13T06:35:59;2.05;;;1.20;;
35646;SDS011;28680;45.642;13.756;2023-01-13T06:38:31;6.05;;;2.20;;
35646;SDS011;28680;45.642;13.756;2023-01-13T06:41:01;3.60;;;1.75;;
35646;SDS011;28680;45.642;13.756;2023-01-13T06:43:29;5.07;;;1.77;;
35646;SDS011;28680;45.642;13.756;2023-01-13T06:45:55;5.55;;;2.30;;
35646;SDS011;28680;45.642;13.756;2023-01-13T06:48:22;3.80;;;1.90;;
35646;SDS011;28680;45.642;13.756;2023-01-13T06:50:56;6.15;;;1.58;;
35646;SDS011;28680;45.642;13.756;2023-01-13T06:53:23;6.78;;;1.60;;
35646;SDS011;28680;45.642;13.756;2023-01-13T06:55:49;6.53;;;2.80;;
35646;SDS011;28680;45.642;13.756;2023-01-13T06:58:15;3.67;;;2.42;;
35646;SDS011;28680;45.642;13.756;2023-01-13T07:00:41;4.70;;;1.90;;
35646;SDS011;28680;45.642;13.756;2023-01-13T07:05:41;5.18;;;2.10;;
35646;SDS011;28680;45.642;13.756;2023-01-13T07:08:14;5.30;;;2.20;;
35646;SDS011;28680;45.642;13.756;2023-01-13T07:10:40;3.90;;;2.05;;
35646;SDS011;28680;45.642;13.756;2023-01-13T07:13:06;4.13;;;1.95;;
35646;SDS011;28680;45.642;13.756;2023-01-13T07:18:21;3.38;;;2.05;;
35646;SDS011;28680;45.642;13.756;2023-01-13T07:20:54;7.28;;;2.58;;
35646;SDS011;28680;45.642;13.756;2023-01-13T07:23:24;7.88;;;2.83;;
35646;SDS011;28680;45.642;13.756;2023-01-13T07:25:56;5.53;;;3.25;;
35646;SDS011;28680;45.642;13.756;2023-01-13T07:28:23;8.48;;;3.53;;
35646;SDS011;28680;45.642;13.756;2023-01-13T07:30:50;9.48;;;3.22;;
35646;SDS011;28680;45.642;13.756;2023-01-13T07:33:17;7.32;;;3.53;;
35646;SDS011;28680;45.642;13.756;2023-01-13T07:35:46;8.25;;;2.95;;
35646;SDS011;28680;45.642;13.756;2023-01-13T07:38:13;8.32;;;2.75;;
35646;SDS011;28680;45.642;13.756;2023-01-13T07:40:39;7.97;;;2.80;;
35646;SDS011;28680;45.642;13.756;2023-01-13T07:43:06;7.97;;;2.75;;
35646;SDS011;28680;45.642;13.756;2023-01-13T07:45:55;4.78;;;2.33;;
35646;SDS011;28680;45.642;13.756;2023-01-13T07:48:29;7.68;;;3.55;;
35646;SDS011;28680;45.642;13.756;2023-01-13T07:51:00;10.18;;;3.60;;
35646;SDS011;28680;45.642;13.756;2023-01-13T07:53:34;7.90;;;3.38;;
35646;SDS011;28680;45.642;13.756;2023-01-13T07:56:01;8.52;;;3.30;;
35646;SDS011;28680;45.642;13.756;2023-01-13T07:58:28;8.32;;;3.10;;
35646;SDS011;28680;45.642;13.756;2023-01-13T08:00:54;11.55;;;3.20;;
35646;SDS011;28680;45.642;13.756;2023-01-13T08:03:21;9.88;;;3.20;;
35646;SDS011;28680;45.642;13.756;2023-01-13T08:05:48;7.28;;;2.90;;
35646;SDS011;28680;45.642;13.756;2023-01-13T08:08:14;11.93;;;3.60;;
35646;SDS011;28680;45.642;13.756;2023-01-13T08:10:40;10.95;;;4.35;;
35646;SDS011;28680;45.642;13.756;2023-01-13T08:13:10;12.98;;;4.55;;
35646;SDS011;28680;45.642;13.756;2023-01-13T08:15:41;11.10;;;4.80;;
35646;SDS011;28680;45.642;13.756;2023-01-13T08:18:16;16.55;;;5.05;;
35646;SDS011;28680;45.642;13.756;2023-01-13T08:20:46;14.43;;;5.22;;
35646;SDS011;28680;45.642;13.756;2023-01-13T08:23:13;16.02;;;5.72;;
35646;SDS011;28680;45.642;13.756;2023-01-13T08:25:40;15.65;;;5.22;;
35646;SDS011;28680;45.642;13.756;2023-01-13T08:28:06;13.82;;;5.32;;
35646;SDS011;28680;45.642;13.756;2023-01-13T08:30:32;10.93;;;4.85;;
35646;SDS011;28680;45.642;13.756;2023-01-13T08:32:57;12.20;;;4.85;;
35646;SDS011;28680;45.642;13.756;2023-01-13T08:35:23;12.10;;;5.13;;
35646;SDS011;28680;45.642;13.756;2023-01-13T08:37:49;17.00;;;5.30;;
35646;SDS011;28680;45.642;13.756;2023-01-13T08:40:16;13.55;;;5.15;;
35646;SDS011;28680;45.642;13.756;2023-01-13T08:42:44;12.95;;;4.45;;
35646;SDS011;28680;45.642;13.756;2023-01-13T08:54:12;8.07;;;4.25;;
35646;SDS011;28680;45.642;13.756;2023-01-13T08:56:39;9.00;;;3.80;;
35646;SDS011;28680;45.642;13.756;2023-01-13T08:59:11;8.70;;;3.85;;
35646;SDS011;28680;45.642;13.756;2023-01-13T09:01:41;10.88;;;3.67;;
35646;SDS011;28680;45.642;13.756;2023-01-13T09:04:18;9.45;;;3.63;;
35646;SDS011;28680;45.642;13.756;2023-01-13T09:06:47;11.35;;;3.55;;
35646;SDS011;28680;45.642;13.756;2023-01-13T09:09:14;7.45;;;3.85;;
35646;SDS011;28680;45.642;13.756;2023-01-13T09:11:42;12.70;;;4.00;;
35646;SDS011;28680;45.642;13.756;2023-01-13T09:14:30;11.68;;;4.45;;
35646;SDS011;28680;45.642;13.756;2023-01-13T09:16:58;11.18;;;5.50;;
35646;SDS011;28680;45.642;13.756;2023-01-13T09:19:25;9.82;;;4.20;;
35646;SDS011;28680;45.642;13.756;2023-01-13T09:21:52;12.23;;;3.88;;
35646;SDS011;28680;45.642;13.756;2023-01-13T09:24:19;9.02;;;4.20;;
35646;SDS011;28680;45.642;13.756;2023-01-13T09:26:46;9.27;;;4.13;;
35646;SDS011;28680;45.642;13.756;2023-01-13T09:29:12;12.52;;;4.63;;
35646;SDS011;28680;45.642;13.756;2023-01-13T09:31:39;5.93;;;3.80;;
35646;SDS011;28680;45.642;13.756;2023-01-13T09:34:06;6.63;;;3.50;;
35646;SDS011;28680;45.642;13.756;2023-01-13T09:36:53;6.68;;;4.30;;
35646;SDS011;28680;45.642;13.756;2023-01-13T09:39:18;5.90;;;3.80;;
35646;SDS011;28680;45.642;13.756;2023-01-13T09:41:47;6.30;;;3.38;;
35646;SDS011;28680;45.642;13.756;2023-01-13T09:52:37;9.93;;;4.05;;
35646;SDS011;28680;45.642;13.756;2023-01-13T09:55:12;10.48;;;4.53;;
35646;SDS011;28680;45.642;13.756;2023-01-13T09:57:47;6.97;;;4.00;;
35646;SDS011;28680;45.642;13.756;2023-01-13T10:00:17;9.52;;;4.10;;
35646;SDS011;28680;45.642;13.756;2023-01-13T10:03:18;9.48;;;4.50;;
35646;SDS011;28680;45.642;13.756;2023-01-13T10:05:53;7.68;;;4.00;;
35646;SDS011;28680;45.642;13.756;2023-01-13T10:11:07;9.52;;;4.35;;
35646;SDS011;28680;45.642;13.756;2023-01-13T10:14:16;7.95;;;4.10;;
35646;SDS011;28680;45.642;13.756;2023-01-13T10:19:56;10.85;;;4.57;;
35646;SDS011;28680;45.642;13.756;2023-01-13T10:28:18;6.95;;;4.20;;
35646;SDS011;28680;45.642;13.756;2023-01-13T10:30:44;10.80;;;3.88;;
35646;SDS011;28680;45.642;13.756;2023-01-13T10:33:19;9.57;;;3.53;;
35646;SDS011;28680;45.642;13.756;2023-01-13T10:36:01;7.53;;;3.90;;
35646;SDS011;28680;45.642;13.756;2023-01-13T10:38:47;10.63;;;4.47;;
35646;SDS011;28680;45.642;13.756;2023-01-13T10:46:31;9.00;;;4.30;;
35646;SDS011;28680;45.642;13.756;2023-01-13T10:49:00;6.95;;;3.03;;
35646;SDS011;28680;45.642;13.756;2023-01-13T10:51:47;10.20;;;3.88;;
35646;SDS011;28680;45.642;13.756;2023-01-13T10:56:47;6.15;;;3.22;;
35646;SDS011;28680;45.642;13.756;2023-01-13T10:59:34;6.85;;;3.47;;
35646;SDS011;28680;45.642;13.756;2023-01-13T11:07:23;5.30;;;2.78;;
35646;SDS011;28680;45.642;13.756;2023-01-13T11:15:45;5.03;;;2.70;;
35646;SDS011;28680;45.642;13.756;2023-01-13T11:18:45;3.92;;;2.00;;
35646;SDS011;28680;45.642;13.756;2023-01-13T11:25:00;4.25;;;1.85;;
35646;SDS011;28680;45.642;13.756;2023-01-13T11:27:39;3.97;;;1.63;;
35646;SDS011;28680;45.642;13.756;2023-01-13T11:33:14;5.68;;;1.85;;
35646;SDS011;28680;45.642;13.756;2023-01-13T11:44:45;4.90;;;1.80;;
35646;SDS011;28680;45.642;13.756;2023-01-13T11:47:44;4.45;;;1.40;;
35646;SDS011;28680;45.642;13.756;2023-01-13T11:50:16;3.25;;;1.33;;
35646;SDS011;28680;45.642;13.756;2023-01-13T11:55:48;2.15;;;1.23;;
35646;SDS011;28680;45.642;13.756;2023-01-13T12:10:25;2.75;;;1.50;;
35646;SDS011;28680;45.642;13.756;2023-01-13T12:30:24;3.45;;;2.00;;
35646;SDS011;28680;45.642;13.756;2023-01-13T12:47:49;4.22;;;2.25;;
35646;SDS011;28680;45.642;13.756;2023-01-13T12:52:50;2.97;;;1.70;;
35646;SDS011;28680;45.642;13.756;2023-01-13T12:55:34;3.72;;;1.98;;
35646;SDS011;28680;45.642;13.756;2023-01-13T13:11:37;4.35;;;1.85;;
35646;SDS011;28680;45.642;13.756;2023-01-13T13:19:53;5.00;;;1.65;;
35646;SDS011;28680;45.642;13.756;2023-01-13T13:27:24;2.80;;;1.70;;
35646;SDS011;28680;45.642;13.756;2023-01-13T13:29:57;3.67;;;1.65;;
35646;SDS011;28680;45.642;13.756;2023-01-13T13:45:25;4.18;;;2.03;;
35646;SDS011;28680;45.642;13.756;2023-01-13T13:48:24;4.50;;;2.20;;
35646;SDS011;28680;45.642;13.756;2023-01-13T13:50:55;6.50;;;2.15;;
35646;SDS011;28680;45.642;13.756;2023-01-13T13:53:32;5.13;;;2.17;;
35646;SDS011;28680;45.642;13.756;2023-01-13T13:56:04;4.53;;;2.22;;
35646;SDS011;28680;45.642;13.756;2023-01-13T13:58:41;4.20;;;2.15;;
35646;SDS011;28680;45.642;13.756;2023-01-13T14:01:14;6.22;;;2.75;;
35646;SDS011;28680;45.642;13.756;2023-01-13T14:04:08;5.93;;;2.45;;
35646;SDS011;28680;45.642;13.756;2023-01-13T14:06:50;4.82;;;2.38;;
35646;SDS011;28680;45.642;13.756;2023-01-13T14:09:40;9.82;;;3.40;;
35646;SDS011;28680;45.642;13.756;2023-01-13T14:12:18;5.35;;;3.00;;
35646;SDS011;28680;45.642;13.756;2023-01-13T14:14:50;8.80;;;3.22;;
35646;SDS011;28680;45.642;13.756;2023-01-13T14:17:26;5.57;;;2.70;;
35646;SDS011;28680;45.642;13.756;2023-01-13T14:20:04;7.88;;;2.75;;
35646;SDS011;28680;45.642;13.756;2023-01-13T14:22:38;4.53;;;2.45;;
35646;SDS011;28680;45.642;13.756;2023-01-13T14:27:55;6.63;;;2.55;;
35646;SDS011;28680;45.642;13.756;2023-01-13T14:30:25;6.80;;;3.08;;
35646;SDS011;28680;45.642;13.756;2023-01-13T14:32:52;3.92;;;2.45;;
35646;SDS011;28680;45.642;13.756;2023-01-13T14:35:20;4.03;;;2.45;;
35646;SDS011;28680;45.642;13.756;2023-01-13T14:37:46;6.07;;;3.03;;
35646;SDS011;28680;45.642;13.756;2023-01-13T14:43:01;11.52;;;4.25;;
35646;SDS011;28680;45.642;13.756;2023-01-13T14:45:34;15.23;;;4.28;;
35646;SDS011;28680;45.642;13.756;2023-01-13T14:48:00;15.45;;;5.22;;
35646;SDS011;28680;45.642;13.756;2023-01-13T14:50:31;8.57;;;4.10;;
35646;SDS011;28680;45.642;13.756;2023-01-13T14:52:59;9.75;;;4.20;;
35646;SDS011;28680;45.642;13.756;2023-01-13T14:55:35;18.42;;;4.90;;
35646;SDS011;28680;45.642;13.756;2023-01-13T15:00:47;17.25;;;5.78;;
35646;SDS011;28680;45.642;13.756;2023-01-13T15:03:16;13.55;;;4.97;;
35646;SDS011;28680;45.642;13.756;2023-01-13T15:05:45;20.17;;;5.50;;
35646;SDS011;28680;45.642;13.756;2023-01-13T15:10:52;14.25;;;5.68;;
35646;SDS011;28680;45.642;13.756;2023-01-13T15:13:28;14.77;;;5.60;;
35646;SDS011;28680;45.642;13.756;2023-01-13T15:16:21;14.25;;;5.70;;
35646;SDS011;28680;45.642;13.756;2023-01-13T15:18:49;13.02;;;5.90;;
35646;SDS011;28680;45.642;13.756;2023-01-13T15:21:16;13.25;;;6.40;;
35646;SDS011;28680;45.642;13.756;2023-01-13T15:23:43;16.20;;;6.68;;
35646;SDS011;28680;45.642;13.756;2023-01-13T15:26:27;16.80;;;6.20;;
35646;SDS011;28680;45.642;13.756;2023-01-13T15:28:55;13.95;;;5.85;;
35646;SDS011;28680;45.642;13.756;2023-01-13T15:31:23;19.70;;;6.78;;
35646;SDS011;28680;45.642;13.756;2023-01-13T15:33:53;21.83;;;9.82;;
35646;SDS011;28680;45.642;13.756;2023-01-13T15:36:26;19.08;;;6.30;;
35646;SDS011;28680;45.642;13.756;2023-01-13T15:38:55;11.57;;;6.25;;
35646;SDS011;28680;45.642;13.756;2023-01-13T15:41:22;16.77;;;6.07;;
35646;SDS011;28680;45.642;13.756;2023-01-13T15:44:12;14.88;;;6.65;;
35646;SDS011;28680;45.642;13.756;2023-01-13T15:46:59;14.25;;;6.57;;
35646;SDS011;28680;45.642;13.756;2023-01-13T15:49:33;16.80;;;5.50;;
35646;SDS011;28680;45.642;13.756;2023-01-13T15:52:22;18.95;;;5.70;;
35646;SDS011;28680;45.642;13.756;2023-01-13T15:54:52;21.48;;;6.07;;
35646;SDS011;28680;45.642;13.756;2023-01-13T15:57:20;19.30;;;6.57;;
35646;SDS011;28680;45.642;13.756;2023-01-13T16:00:00;13.98;;;5.95;;
35646;SDS011;28680;45.642;13.756;2023-01-13T16:02:50;13.48;;;6.60;;
35646;SDS011;28680;45.642;13.756;2023-01-13T16:05:16;17.70;;;5.75;;
35646;SDS011;28680;45.642;13.756;2023-01-13T16:07:42;16.52;;;6.38;;
35646;SDS011;28680;45.642;13.756;2023-01-13T16:10:16;16.00;;;6.32;;
35646;SDS011;28680;45.642;13.756;2023-01-13T16:12:48;12.45;;;5.30;;
35646;SDS011;28680;45.642;13.756;2023-01-13T16:15:35;12.45;;;4.53;;
35646;SDS011;28680;45.642;13.756;2023-01-13T16:18:06;11.43;;;5.03;;
35646;SDS011;28680;45.642;13.756;2023-01-13T16:20:38;10.18;;;4.57;;
35646;SDS011;28680;45.642;13.756;2023-01-13T16:23:04;18.02;;;4.90;;
35646;SDS011;28680;45.642;13.756;2023-01-13T16:25:29;7.85;;;4.20;;
35646;SDS011;28680;45.642;13.756;2023-01-13T16:27:55;9.20;;;4.53;;
35646;SDS011;28680;45.642;13.756;2023-01-13T16:30:25;10.40;;;4.65;;
35646;SDS011;28680;45.642;13.756;2023-01-13T16:32:57;8.77;;;4.68;;
35646;SDS011;28680;45.642;13.756;2023-01-13T16:35:24;10.95;;;5.00;;
35646;SDS011;28680;45.642;13.756;2023-01-13T16:37:51;8.38;;;4.50;;
35646;SDS011;28680;45.642;13.756;2023-01-13T16:40:28;16.17;;;6.47;;
35646;SDS011;28680;45.642;13.756;2023-01-13T16:43:00;14.32;;;5.50;;
35646;SDS011;28680;45.642;13.756;2023-01-13T16:45:28;13.45;;;5.85;;
35646;SDS011;28680;45.642;13.756;2023-01-13T16:47:55;12.02;;;5.28;;
35646;SDS011;28680;45.642;13.756;2023-01-13T16:50:35;10.40;;;5.50;;
35646;SDS011;28680;45.642;13.756;2023-01-13T16:53:05;12.80;;;4.72;;
35646;SDS011;28680;45.642;13.756;2023-01-13T16:55:42;11.98;;;4.97;;
35646;SDS011;28680;45.642;13.756;2023-01-13T16:58:18;9.90;;;4.35;;
35646;SDS011;28680;45.642;13.756;2023-01-13T17:01:03;9.45;;;4.07;;
35646;SDS011;28680;45.642;13.756;2023-01-13T17:06:41;13.55;;;4.70;;
35646;SDS011;28680;45.642;13.756;2023-01-13T17:09:23;13.07;;;5.10;;
35646;SDS011;28680;45.642;13.756;2023-01-13T17:11:51;13.70;;;5.43;;
35646;SDS011;28680;45.642;13.756;2023-01-13T17:14:18;20.42;;;5.82;;
35646;SDS011;28680;45.642;13.756;2023-01-13T17:16:47;24.08;;;7.15;;
35646;SDS011;28680;45.642;13.756;2023-01-13T17:19:18;26.55;;;6.63;;
35646;SDS011;28680;45.642;13.756;2023-01-13T17:21:45;23.08;;;6.70;;
35646;SDS011;28680;45.642;13.756;2023-01-13T17:24:11;15.40;;;5.88;;
35646;SDS011;28680;45.642;13.756;2023-01-13T17:26:42;15.05;;;6.25;;
35646;SDS011;28680;45.642;13.756;2023-01-13T17:29:20;14.95;;;6.05;;
35646;SDS011;28680;45.642;13.756;2023-01-13T17:31:49;17.50;;;6.22;;
35646;SDS011;28680;45.642;13.756;2023-01-13T17:34:18;11.82;;;6.07;;
35646;SDS011;28680;45.642;13.756;2023-01-13T17:36:45;12.70;;;6.03;;
35646;SDS011;28680;45.642;13.756;2023-01-13T17:39:15;16.08;;;6.00;;
35646;SDS011;28680;45.642;13.756;2023-01-13T17:41:49;11.18;;;5.55;;
35646;SDS011;28680;45.642;13.756;2023-01-13T17:44:21;13.30;;;5.97;;
35646;SDS011;28680;45.642;13.756;2023-01-13T17:46:48;14.40;;;6.13;;
35646;SDS011;28680;45.642;13.756;2023-01-13T17:49:15;13.02;;;6.30;;
35646;SDS011;28680;45.642;13.756;2023-01-13T17:51:43;17.95;;;7.10;;
35646;SDS011;28680;45.642;13.756;2023-01-13T17:54:12;15.18;;;6.72;;
35646;SDS011;28680;45.642;13.756;2023-01-13T17:56:39;15.57;;;7.68;;
35646;SDS011;28680;45.642;13.756;2023-01-13T17:59:06;10.50;;;5.72;;
35646;SDS011;28680;45.642;13.756;2023-01-13T18:01:32;12.80;;;6.00;;
35646;SDS011;28680;45.642;13.756;2023-01-13T18:03:58;14.18;;;5.80;;
35646;SDS011;28680;45.642;13.756;2023-01-13T18:06:37;15.65;;;6.68;;
35646;SDS011;28680;45.642;13.756;2023-01-13T18:09:03;19.00;;;7.38;;
35646;SDS011;28680;45.642;13.756;2023-01-13T18:11:28;13.80;;;5.93;;
35646;SDS011;28680;45.642;13.756;2023-01-13T18:13:54;11.95;;;6.85;;
35646;SDS011;28680;45.642;13.756;2023-01-13T18:16:21;17.27;;;6.97;;
35646;SDS011;28680;45.642;13.756;2023-01-13T18:18:55;14.30;;;7.13;;
35646;SDS011;28680;45.642;13.756;2023-01-13T18:21:41;15.45;;;6.70;;
35646;SDS011;28680;45.642;13.756;2023-01-13T18:24:25;15.05;;;7.30;;
35646;SDS011;28680;45.642;13.756;2023-01-13T18:27:11;19.40;;;8.52;;
35646;SDS011;28680;45.642;13.756;2023-01-13T18:29:48;15.98;;;7.72;;
35646;SDS011;28680;45.642;13.756;2023-01-13T18:32:20;13.38;;;6.65;;
35646;SDS011;28680;45.642;13.756;2023-01-13T18:34:48;15.68;;;7.13;;
35646;SDS011;28680;45.642;13.756;2023-01-13T18:37:20;13.68;;;6.60;;
35646;SDS011;28680;45.642;13.756;2023-01-13T18:43:15;17.13;;;6.60;;
35646;SDS011;28680;45.642;13.756;2023-01-13T18:48:44;21.95;;;7.60;;
35646;SDS011;28680;45.642;13.756;2023-01-13T18:51:10;15.10;;;6.95;;